Time;durP1;ratioP1;P1;durP2;ratioP2;P2;SDS_P1;SDS_P2;PMS_P1;PMS_P2;Temp;Humidity;BMP_temperature;BMP_pressure;BME280_temperature;BME280_humidity;BME280_pressure;Samples;Min_cycle;Max_cycle;Signal;HPM_P1;HPM_P2
2023/03/21 00:00:42;;;;;;;6.82;2.65;;;12.40;99.90;;;;;;7385114;19;20142;-73
2023/03/21 00:03:07;;;;;;;3.40;2.50;;;12.40;99.90;;;;;;7386753;19;20472;-72
2023/03/21 00:05:33;;;;;;;3.83;2.40;;;12.50;99.90;;;;;;7384709;19;20130;-73
2023/03/21 00:07:59;;;;;;;4.28;2.90;;;12.70;99.90;;;;;;7387799;19;20134;-72
2023/03/21 00:10:25;;;;;;;5.43;3.03;;;12.70;99.90;;;;;;7384657;19;20158;-73
2023/03/21 00:12:57;;;;;;;5.18;2.55;;;12.70;99.90;;;;;;7387629;19;20158;-72
2023/03/21 00:15:28;;;;;;;5.10;2.65;;;12.80;99.90;;;;;;7384037;19;20142;-72
2023/03/21 00:18:02;;;;;;;3.80;2.60;;;12.80;99.90;;;;;;7383897;19;20131;-71
2023/03/21 00:20:33;;;;;;;3.65;2.53;;;12.80;99.90;;;;;;7387324;19;20163;-72
2023/03/21 00:23:00;;;;;;;3.67;2.65;;;12.80;99.90;;;;;;7383229;19;20218;-72
2023/03/21 00:25:27;;;;;;;4.05;3.00;;;12.80;99.90;;;;;;7386544;19;20145;-71
2023/03/21 00:27:52;;;;;;;3.45;2.65;;;12.70;99.90;;;;;;7385391;19;20165;-73
2023/03/21 00:30:18;;;;;;;5.13;2.63;;;12.20;99.90;;;;;;7384606;19;20194;-73
2023/03/21 00:32:45;;;;;;;4.05;2.70;;;12.20;99.90;;;;;;7384063;19;20541;-73
2023/03/21 00:35:11;;;;;;;3.92;2.80;;;12.40;99.90;;;;;;7384439;19;20150;-72
2023/03/21 00:37:37;;;;;;;4.13;2.75;;;12.50;99.90;;;;;;7385700;19;20227;-72
2023/03/21 00:40:11;;;;;;;4.22;2.65;;;12.40;99.90;;;;;;7385903;19;20150;-72
2023/03/21 00:42:37;;;;;;;5.78;3.28;;;12.30;99.90;;;;;;7385527;19;20139;-73
2023/03/21 00:45:03;;;;;;;5.15;3.20;;;12.50;99.90;;;;;;7384572;19;20483;-73
2023/03/21 00:47:29;;;;;;;4.85;3.33;;;12.60;99.90;;;;;;7384964;19;20148;-72
2023/03/21 00:49:56;;;;;;;6.03;3.33;;;12.50;99.90;;;;;;7385520;19;20135;-72
2023/03/21 00:52:22;;;;;;;5.13;3.27;;;12.60;99.90;;;;;;7384688;19;20442;-72
2023/03/21 00:54:47;;;;;;;4.30;2.80;;;12.50;99.90;;;;;;7385279;19;20163;-72
2023/03/21 00:57:13;;;;;;;3.78;2.72;;;12.60;99.90;;;;;;7385884;19;20175;-73
2023/03/21 00:59:39;;;;;;;5.90;3.07;;;12.60;99.90;;;;;;7384572;19;20137;-73
2023/03/21 01:02:08;;;;;;;4.35;3.00;;;12.60;99.90;;;;;;7393042;19;20135;-73
2023/03/21 01:04:33;;;;;;;5.35;3.33;;;12.60;99.90;;;;;;7390147;19;20174;-71
2023/03/21 01:06:59;;;;;;;5.35;3.20;;;12.70;99.90;;;;;;7391914;19;20157;-72
2023/03/21 01:09:25;;;;;;;5.30;2.93;;;12.80;99.90;;;;;;7391246;19;20148;-72
2023/03/21 01:11:52;;;;;;;5.57;3.15;;;12.70;99.90;;;;;;7392918;19;20138;-73
2023/03/21 01:14:20;;;;;;;4.90;3.42;;;12.80;99.90;;;;;;7390267;19;20473;-72
2023/03/21 01:16:46;;;;;;;5.47;2.70;;;12.50;99.90;;;;;;7392084;19;20146;-72
2023/03/21 01:19:15;;;;;;;3.72;2.78;;;12.30;99.90;;;;;;7389755;19;20158;-71
2023/03/21 01:21:41;;;;;;;5.90;3.00;;;12.40;99.90;;;;;;7384692;19;20154;-73
2023/03/21 01:24:07;;;;;;;4.93;3.08;;;12.50;99.90;;;;;;7389138;19;20167;-73
2023/03/21 01:26:33;;;;;;;4.50;2.97;;;12.50;99.90;;;;;;7391691;19;20150;-72
2023/03/21 01:28:59;;;;;;;3.90;2.67;;;12.60;99.90;;;;;;7390915;19;20461;-73
2023/03/21 01:31:24;;;;;;;4.22;2.80;;;12.70;99.90;;;;;;7390588;19;20500;-73
2023/03/21 01:33:50;;;;;;;6.28;2.88;;;12.70;99.90;;;;;;7392160;19;20471;-72
2023/03/21 01:36:21;;;;;;;4.38;2.80;;;12.60;99.90;;;;;;7393898;19;20135;-72
2023/03/21 01:38:48;;;;;;;6.03;3.10;;;12.50;99.90;;;;;;7390134;19;20146;-72
2023/03/21 01:41:25;;;;;;;6.47;2.60;;;12.60;99.90;;;;;;7388762;19;20146;-72
2023/03/21 01:43:51;;;;;;;3.72;2.50;;;12.50;99.90;;;;;;7390735;19;20146;-72
2023/03/21 01:46:38;;;;;;;5.72;3.08;;;12.50;99.90;;;;;;7391077;19;20158;-72
2023/03/21 01:49:13;;;;;;;4.63;2.50;;;12.60;99.90;;;;;;7390650;19;20154;-73
2023/03/21 01:51:44;;;;;;;4.53;3.20;;;12.60;99.90;;;;;;7390328;19;20167;-72
2023/03/21 01:54:15;;;;;;;3.90;3.00;;;12.70;99.90;;;;;;7388219;19;20161;-72
2023/03/21 01:56:45;;;;;;;3.70;2.70;;;12.70;99.90;;;;;;7389257;19;20149;-72
2023/03/21 01:59:20;;;;;;;4.63;2.80;;;12.70;99.90;;;;;;7391939;19;20139;-72
2023/03/21 02:01:47;;;;;;;5.53;2.97;;;12.70;99.90;;;;;;7388647;19;20146;-72
2023/03/21 02:04:13;;;;;;;5.47;3.20;;;12.60;99.90;;;;;;7390940;19;20142;-71
2023/03/21 02:06:43;;;;;;;2.85;2.50;;;12.50;99.90;;;;;;7391524;19;20133;-73
2023/03/21 02:09:13;;;;;;;3.10;2.80;;;12.40;99.90;;;;;;7391012;19;20142;-73
2023/03/21 02:11:40;;;;;;;4.43;2.90;;;12.50;99.90;;;;;;7387879;19;20135;-73
2023/03/21 02:14:08;;;;;;;4.27;2.90;;;12.60;99.90;;;;;;7389562;19;20152;-74
2023/03/21 02:16:45;;;;;;;6.80;3.10;;;12.60;99.90;;;;;;7389360;19;20149;-71
2023/03/21 02:19:37;;;;;;;5.18;2.95;;;12.60;99.90;;;;;;7391697;19;20146;-71
2023/03/21 02:22:11;;;;;;;5.03;3.08;;;12.70;99.90;;;;;;7389162;19;20154;-72
2023/03/21 02:24:46;;;;;;;5.15;2.60;;;12.50;99.90;;;;;;7389328;19;20151;-72
2023/03/21 02:27:13;;;;;;;5.03;2.88;;;12.50;99.90;;;;;;7393135;19;20142;-72
2023/03/21 02:30:05;;;;;;;6.22;3.05;;;12.40;99.90;;;;;;7387459;19;20139;-72
2023/03/21 02:32:51;;;;;;;4.63;2.53;;;12.50;99.90;;;;;;7381588;19;20142;-72
2023/03/21 02:36:12;;;;;;;5.97;2.80;;;12.60;99.90;;;;;;7389557;19;20244;-72
2023/03/21 02:39:06;;;;;;;5.80;2.92;;;12.60;99.90;;;;;;7390705;19;20172;-70
2023/03/21 02:41:55;;;;;;;3.33;2.65;;;12.50;99.90;;;;;;7386961;19;20159;-73
2023/03/21 02:44:55;;;;;;;4.47;2.95;;;12.10;99.90;;;;;;7388333;19;20213;-72
2023/03/21 02:47:34;;;;;;;4.78;3.20;;;12.10;99.90;;;;;;7389214;19;20163;-72
2023/03/21 02:50:16;;;;;;;6.67;2.80;;;12.10;99.90;;;;;;7389147;19;20225;-72
2023/03/21 02:52:46;;;;;;;4.78;3.03;;;12.20;99.90;;;;;;7383673;19;20130;-72
2023/03/21 02:55:32;;;;;;;4.53;2.63;;;12.40;99.90;;;;;;7387145;19;20147;-73
2023/03/21 02:57:59;;;;;;;3.38;2.65;;;12.30;99.90;;;;;;7386915;19;20141;-72
2023/03/21 03:00:28;;;;;;;4.18;2.22;;;12.30;99.90;;;;;;7387481;19;20169;-72
2023/03/21 03:02:54;;;;;;;7.82;3.13;;;12.30;99.90;;;;;;7386470;19;20127;-73
2023/03/21 03:05:29;;;;;;;2.97;2.50;;;12.30;99.90;;;;;;7386956;19;20149;-72
2023/03/21 03:08:22;;;;;;;2.97;2.40;;;12.40;99.90;;;;;;7389857;19;20266;-72
2023/03/21 03:11:27;;;;;;;3.80;2.63;;;12.40;99.90;;;;;;7388834;19;20591;-72
2023/03/21 03:14:11;;;;;;;4.88;2.70;;;12.40;99.90;;;;;;7388571;19;20164;-73
2023/03/21 03:16:58;;;;;;;5.35;2.65;;;12.40;99.90;;;;;;7386726;19;20139;-72
2023/03/21 03:19:31;;;;;;;4.15;2.70;;;12.50;99.90;;;;;;7387704;19;20198;-73
2023/03/21 03:22:12;;;;;;;3.30;2.60;;;12.50;99.90;;;;;;7388200;19;20138;-74
2023/03/21 03:25:01;;;;;;;3.63;2.63;;;12.40;99.90;;;;;;7388864;19;20154;-72
2023/03/21 03:27:31;;;;;;;4.07;2.90;;;12.40;99.90;;;;;;7387960;19;20150;-73
2023/03/21 03:30:00;;;;;;;4.73;2.60;;;12.50;99.90;;;;;;7387444;19;20137;-72
2023/03/21 03:32:56;;;;;;;4.00;2.47;;;12.40;99.90;;;;;;7387013;19;20179;-72
2023/03/21 03:35:24;;;;;;;4.70;2.60;;;12.40;99.90;;;;;;7385705;19;20150;-72
2023/03/21 03:37:55;;;;;;;2.60;1.80;;;12.40;99.90;;;;;;7387796;19;20142;-72
2023/03/21 03:40:29;;;;;;;2.13;1.90;;;12.40;99.90;;;;;;7386017;19;20126;-72
2023/03/21 03:43:00;;;;;;;2.00;1.70;;;12.40;99.90;;;;;;7388256;19;20134;-72
2023/03/21 03:45:34;;;;;;;2.83;1.97;;;12.30;99.90;;;;;;7386950;19;20126;-73
2023/03/21 03:48:11;;;;;;;4.43;2.00;;;12.30;99.90;;;;;;7385762;19;20134;-73
2023/03/21 03:50:45;;;;;;;5.97;2.03;;;12.30;99.90;;;;;;7385802;19;20127;-72
2023/03/21 03:53:51;;;;;;;3.60;2.40;;;12.20;99.90;;;;;;7388958;19;20516;-73
2023/03/21 03:56:18;;;;;;;2.50;1.92;;;12.20;99.90;;;;;;7385562;19;20142;-74
2023/03/21 03:58:45;;;;;;;4.85;1.90;;;12.20;99.90;;;;;;7386783;19;20134;-73
2023/03/21 04:01:11;;;;;;;5.20;2.13;;;12.20;99.90;;;;;;7385195;19;20195;-72
2023/03/21 04:03:40;;;;;;;2.30;2.10;;;12.20;99.90;;;;;;7385428;19;20654;-71
2023/03/21 04:06:06;;;;;;;2.78;2.15;;;12.00;99.90;;;;;;7386579;19;20206;-73
2023/03/21 04:08:32;;;;;;;3.45;2.25;;;11.90;99.90;;;;;;7386084;19;20171;-72
2023/03/21 04:10:57;;;;;;;5.20;2.20;;;12.00;99.90;;;;;;7386961;19;20138;-73
2023/03/21 04:13:24;;;;;;;3.60;2.10;;;12.20;99.90;;;;;;7389070;19;20642;-73
2023/03/21 04:15:50;;;;;;;4.30;2.10;;;11.90;99.90;;;;;;7386295;19;20552;-73
2023/03/21 04:18:16;;;;;;;3.70;2.40;;;11.80;99.90;;;;;;7385982;19;20138;-72
2023/03/21 04:20:43;;;;;;;2.75;2.00;;;11.80;99.90;;;;;;7387184;19;20607;-72
2023/03/21 04:23:10;;;;;;;3.90;1.90;;;11.90;99.90;;;;;;7383899;19;20159;-73
2023/03/21 04:25:36;;;;;;;3.58;2.17;;;12.10;99.90;;;;;;7384490;19;20146;-72
2023/03/21 04:28:02;;;;;;;3.90;2.55;;;12.10;99.90;;;;;;7386870;19;20134;-72
2023/03/21 04:30:28;;;;;;;3.58;2.15;;;12.20;99.90;;;;;;7387426;19;20506;-72
2023/03/21 04:32:59;;;;;;;3.05;2.30;;;12.10;99.90;;;;;;7383991;19;20139;-72
2023/03/21 04:35:26;;;;;;;4.30;2.60;;;12.20;99.90;;;;;;7386185;19;20147;-73
2023/03/21 04:37:51;;;;;;;4.13;2.37;;;12.10;99.90;;;;;;7394276;19;20158;-73
2023/03/21 04:40:18;;;;;;;3.45;2.15;;;12.10;99.90;;;;;;7393704;19;20676;-73
2023/03/21 04:42:46;;;;;;;3.80;2.30;;;12.00;99.90;;;;;;7391643;19;20145;-73
2023/03/21 04:45:15;;;;;;;3.93;2.20;;;11.50;99.90;;;;;;7395522;19;20145;-73
2023/03/21 04:47:41;;;;;;;2.83;2.05;;;11.40;99.90;;;;;;7394215;19;20168;-72
2023/03/21 04:50:09;;;;;;;5.07;2.40;;;11.40;99.90;;;;;;7393705;19;20146;-73
2023/03/21 04:52:35;;;;;;;2.92;2.00;;;11.50;99.90;;;;;;7392305;19;20142;-73
2023/03/21 04:55:01;;;;;;;2.90;1.93;;;11.20;99.90;;;;;;7389787;19;20474;-72
2023/03/21 04:57:27;;;;;;;2.67;2.08;;;11.10;99.90;;;;;;7392820;19;20173;-72
2023/03/21 04:59:53;;;;;;;5.03;2.37;;;11.20;99.90;;;;;;7393091;19;20135;-72
2023/03/21 05:02:18;;;;;;;3.37;1.93;;;11.10;99.90;;;;;;7391062;19;20615;-72
2023/03/21 05:04:44;;;;;;;5.07;2.07;;;11.40;99.90;;;;;;7391298;19;20154;-73
2023/03/21 05:07:10;;;;;;;3.80;2.13;;;11.60;99.90;;;;;;7392573;19;20154;-73
2023/03/21 05:09:36;;;;;;;3.28;1.95;;;11.60;99.90;;;;;;7393359;19;20142;-72
2023/03/21 05:12:02;;;;;;;4.13;2.67;;;11.70;99.90;;;;;;7390921;19;20138;-72
2023/03/21 05:14:28;;;;;;;4.33;2.37;;;11.60;99.90;;;;;;7390617;19;20130;-73
2023/03/21 05:16:57;;;;;;;2.53;2.10;;;11.60;99.90;;;;;;7393504;19;20135;-74
2023/03/21 05:19:33;;;;;;;4.07;2.37;;;11.70;99.90;;;;;;7389163;19;20146;-72
2023/03/21 05:22:04;;;;;;;2.73;2.03;;;11.60;99.90;;;;;;7391090;19;20146;-73
2023/03/21 05:24:31;;;;;;;2.10;1.63;;;11.70;99.90;;;;;;7392203;19;20145;-73
2023/03/21 05:27:01;;;;;;;2.93;1.90;;;11.70;99.90;;;;;;7389487;19;20134;-73
2023/03/21 05:29:31;;;;;;;2.50;1.90;;;11.80;99.90;;;;;;7390602;19;20134;-72
2023/03/21 05:31:58;;;;;;;2.90;1.83;;;11.90;99.90;;;;;;7392588;19;20126;-72
2023/03/21 05:34:24;;;;;;;4.73;1.87;;;11.80;99.90;;;;;;7389543;19;20147;-73
2023/03/21 05:36:50;;;;;;;3.73;2.00;;;11.80;99.90;;;;;;7392860;19;20480;-72
2023/03/21 05:39:16;;;;;;;3.95;1.90;;;11.80;99.90;;;;;;7390246;19;20268;-72
2023/03/21 05:41:42;;;;;;;3.17;1.80;;;11.90;99.90;;;;;;7391280;19;20542;-74
2023/03/21 05:44:07;;;;;;;3.57;2.27;;;11.90;99.90;;;;;;7390748;19;20154;-73
2023/03/21 05:46:33;;;;;;;2.20;1.70;;;11.80;99.90;;;;;;7390645;19;20147;-72
2023/03/21 05:48:59;;;;;;;3.37;2.03;;;11.90;99.90;;;;;;7390282;19;20134;-72
2023/03/21 05:51:27;;;;;;;2.23;1.70;;;11.90;99.90;;;;;;7389190;19;20157;-72
2023/03/21 05:53:53;;;;;;;2.40;1.73;;;11.90;99.90;;;;;;7389989;19;20586;-72
2023/03/21 05:56:19;;;;;;;3.17;1.63;;;11.90;99.90;;;;;;7389232;19;20123;-72
2023/03/21 05:58:45;;;;;;;3.93;2.20;;;12.00;99.90;;;;;;7388238;19;20134;-72
2023/03/21 06:01:11;;;;;;;2.73;2.00;;;12.00;99.90;;;;;;7390591;19;20135;-73
2023/03/21 06:03:37;;;;;;;3.37;2.23;;;12.00;99.90;;;;;;7390436;19;20202;-73
2023/03/21 06:06:05;;;;;;;3.10;2.10;;;12.00;99.90;;;;;;7391565;19;20526;-71
2023/03/21 06:08:31;;;;;;;4.17;2.27;;;12.00;99.90;;;;;;7389980;19;20161;-73
2023/03/21 06:10:57;;;;;;;3.00;2.53;;;12.00;99.90;;;;;;7389612;19;20143;-73
2023/03/21 06:13:22;;;;;;;6.13;2.80;;;12.00;99.90;;;;;;7391042;19;20189;-72
2023/03/21 06:15:48;;;;;;;3.90;2.07;;;12.10;99.90;;;;;;7388466;19;20225;-73
2023/03/21 06:18:14;;;;;;;4.20;2.50;;;12.00;99.90;;;;;;7388206;19;20129;-74
2023/03/21 06:20:40;;;;;;;5.43;2.25;;;12.00;99.90;;;;;;7389069;19;20626;-73
2023/03/21 06:23:05;;;;;;;5.27;2.00;;;12.10;99.90;;;;;;7389728;19;20441;-73
2023/03/21 06:25:31;;;;;;;2.23;1.67;;;12.00;99.90;;;;;;7389626;19;20127;-73
2023/03/21 06:27:58;;;;;;;2.58;2.38;;;12.00;99.90;;;;;;7390019;19;20195;-74
2023/03/21 06:30:27;;;;;;;4.70;2.27;;;12.20;99.90;;;;;;7388901;19;20989;-74
2023/03/21 06:32:53;;;;;;;3.53;2.05;;;12.20;99.90;;;;;;7388596;19;20143;-73
2023/03/21 06:35:20;;;;;;;2.87;1.90;;;12.20;99.90;;;;;;7388787;19;20150;-74
2023/03/21 06:37:48;;;;;;;6.83;2.73;;;12.30;99.90;;;;;;7385206;19;20168;-72
2023/03/21 06:40:14;;;;;;;2.53;2.00;;;12.30;99.90;;;;;;7386925;19;20491;-73
2023/03/21 06:42:40;;;;;;;4.03;1.97;;;12.30;99.90;;;;;;7387207;19;20477;-73
2023/03/21 06:45:06;;;;;;;2.63;1.60;;;12.30;99.90;;;;;;7389628;19;20260;-73
2023/03/21 06:47:32;;;;;;;5.77;2.00;;;12.30;99.90;;;;;;7390063;19;20165;-72
2023/03/21 06:49:58;;;;;;;4.30;1.93;;;12.30;99.90;;;;;;7392133;19;20165;-73
2023/03/21 06:52:24;;;;;;;2.30;1.77;;;12.20;99.90;;;;;;7386272;19;20135;-72
2023/03/21 06:54:50;;;;;;;2.90;2.03;;;12.20;99.90;;;;;;7387106;19;20154;-73
2023/03/21 06:57:16;;;;;;;4.57;1.97;;;12.20;99.90;;;;;;7386080;19;20138;-73
2023/03/21 06:59:42;;;;;;;3.90;2.63;;;12.30;99.90;;;;;;7387234;19;20130;-72
2023/03/21 07:02:10;;;;;;;4.20;2.83;;;12.30;99.90;;;;;;7386532;19;20138;-73
2023/03/21 07:04:35;;;;;;;6.27;5.03;;;12.30;99.90;;;;;;7385999;19;20186;-73
2023/03/21 07:07:01;;;;;;;3.63;2.93;;;12.40;99.90;;;;;;7389491;19;20504;-73
2023/03/21 07:09:28;;;;;;;9.17;5.57;;;12.40;99.90;;;;;;7389157;19;20134;-73
2023/03/21 07:11:54;;;;;;;6.83;4.37;;;12.50;99.90;;;;;;7386552;19;20150;-74
2023/03/21 07:14:20;;;;;;;9.00;5.60;;;12.40;99.90;;;;;;7387081;19;20141;-73
2023/03/21 07:16:46;;;;;;;3.93;2.93;;;12.50;99.90;;;;;;7387932;19;20157;-72
2023/03/21 07:19:11;;;;;;;4.80;2.67;;;12.50;99.90;;;;;;7386066;19;20139;-72
2023/03/21 07:21:37;;;;;;;5.37;2.93;;;12.50;99.90;;;;;;7384241;19;20158;-72
2023/03/21 07:24:03;;;;;;;2.77;2.40;;;12.60;99.90;;;;;;7380165;19;20647;-72
2023/03/21 07:26:29;;;;;;;5.73;2.40;;;12.60;99.90;;;;;;7384812;19;20153;-74
2023/03/21 07:28:54;;;;;;;8.77;6.03;;;12.50;99.90;;;;;;7387537;19;20134;-73
2023/03/21 07:31:20;;;;;;;3.70;2.58;;;12.60;99.90;;;;;;7383092;19;20163;-72
2023/03/21 07:33:46;;;;;;;3.63;2.70;;;12.50;99.90;;;;;;7386663;19;20138;-73
2023/03/21 07:36:14;;;;;;;4.57;2.70;;;12.70;99.90;;;;;;7384575;19;20154;-73
2023/03/21 07:38:44;;;;;;;5.10;3.13;;;12.70;99.90;;;;;;7387854;19;20147;-72
2023/03/21 07:41:12;;;;;;;4.38;3.10;;;12.70;99.90;;;;;;7389117;19;20135;-73
2023/03/21 07:43:38;;;;;;;5.53;3.10;;;12.60;99.90;;;;;;7385059;19;20135;-73
2023/03/21 07:46:06;;;;;;;5.40;3.63;;;12.60;99.90;;;;;;7388793;19;20141;-73
2023/03/21 07:48:32;;;;;;;6.10;3.20;;;12.60;99.90;;;;;;7388015;19;20131;-73
2023/03/21 07:50:58;;;;;;;7.88;3.13;;;12.60;99.90;;;;;;7386775;19;20340;-73
2023/03/21 07:53:24;;;;;;;6.22;3.40;;;12.70;99.90;;;;;;7386606;19;20139;-73
2023/03/21 07:55:52;;;;;;;5.13;3.22;;;12.70;99.90;;;;;;7384489;19;20170;-72
2023/03/21 07:58:18;;;;;;;6.63;3.10;;;12.80;99.90;;;;;;7385756;19;20611;-72
2023/03/21 08:00:44;;;;;;;5.25;3.00;;;13.00;99.90;;;;;;7386854;19;20162;-73
2023/03/21 08:03:10;;;;;;;4.50;2.60;;;13.00;99.90;;;;;;7385019;19;20142;-73
2023/03/21 08:05:37;;;;;;;4.70;3.10;;;13.10;99.90;;;;;;7387871;19;20205;-73
2023/03/21 08:08:03;;;;;;;5.20;3.15;;;13.20;99.90;;;;;;7388197;19;20532;-74
2023/03/21 08:10:29;;;;;;;4.30;2.47;;;13.00;99.90;;;;;;7388869;19;20145;-74
2023/03/21 08:12:55;;;;;;;5.10;3.13;;;13.00;99.90;;;;;;7394141;19;20150;-73
2023/03/21 08:15:21;;;;;;;4.50;3.10;;;13.00;99.90;;;;;;7393644;19;20158;-72
2023/03/21 08:17:47;;;;;;;7.72;3.20;;;13.10;99.90;;;;;;7392201;19;20154;-73
2023/03/21 08:20:16;;;;;;;5.65;2.83;;;13.10;99.90;;;;;;7394132;19;20506;-74
2023/03/21 08:22:42;;;;;;;4.63;3.08;;;12.90;99.90;;;;;;7393148;19;20143;-73
2023/03/21 08:25:12;;;;;;;3.95;3.15;;;13.00;99.90;;;;;;7395628;19;20138;-72
2023/03/21 08:27:42;;;;;;;5.45;2.92;;;13.10;99.90;;;;;;7397975;19;20488;-73
2023/03/21 08:30:11;;;;;;;5.20;2.83;;;13.30;99.90;;;;;;7394147;19;20180;-72
2023/03/21 08:32:37;;;;;;;6.73;3.33;;;13.30;99.90;;;;;;7393190;19;20164;-72
2023/03/21 08:35:08;;;;;;;5.17;3.50;;;13.20;99.90;;;;;;7392798;19;20143;-73
2023/03/21 08:37:36;;;;;;;3.13;2.47;;;13.20;99.90;;;;;;7392990;19;20131;-72
2023/03/21 08:40:05;;;;;;;3.30;2.58;;;13.50;99.90;;;;;;7394846;19;20491;-73
2023/03/21 08:42:31;;;;;;;4.20;2.70;;;13.60;99.90;;;;;;7394764;19;20138;-72
2023/03/21 08:44:57;;;;;;;3.22;2.17;;;13.80;99.90;;;;;;7393949;19;20145;-72
2023/03/21 08:47:22;;;;;;;4.20;1.95;;;13.90;99.90;;;;;;7393579;19;20135;-73
2023/03/21 08:49:48;;;;;;;1.88;1.50;;;14.00;99.90;;;;;;7393758;19;20243;-73
2023/03/21 08:52:14;;;;;;;2.97;1.85;;;14.40;99.90;;;;;;7393539;19;20257;-73
2023/03/21 08:54:40;;;;;;;4.70;1.73;;;14.60;99.90;;;;;;7391463;19;20175;-73
2023/03/21 08:57:07;;;;;;;3.30;2.00;;;14.70;99.90;;;;;;7391192;19;20552;-73
2023/03/21 08:59:34;;;;;;;4.72;2.60;;;14.80;99.90;;;;;;7394600;19;20134;-72
2023/03/21 09:01:59;;;;;;;4.93;3.40;;;14.60;99.90;;;;;;7391044;19;20228;-73
2023/03/21 09:04:26;;;;;;;5.95;3.40;;;14.70;99.90;;;;;;7391977;19;20150;-72
2023/03/21 09:06:51;;;;;;;2.63;1.95;;;14.90;99.90;;;;;;7391720;19;20146;-74
2023/03/21 09:09:17;;;;;;;1.63;1.52;;;15.10;99.90;;;;;;7393196;19;20155;-72
2023/03/21 09:11:43;;;;;;;3.33;1.55;;;15.30;99.90;;;;;;7393000;19;20157;-72
2023/03/21 09:14:10;;;;;;;2.25;1.40;;;15.20;99.90;;;;;;7392305;19;20131;-72
2023/03/21 09:16:36;;;;;;;4.57;1.70;;;15.20;99.90;;;;;;7391921;19;20142;-72
2023/03/21 09:19:03;;;;;;;1.70;1.38;;;15.20;99.90;;;;;;7391071;19;20135;-73
2023/03/21 09:21:29;;;;;;;3.88;1.60;;;15.40;99.90;;;;;;7391264;19;20119;-73
2023/03/21 09:23:58;;;;;;;1.60;1.30;;;15.40;99.90;;;;;;7391623;19;20134;-72
2023/03/21 09:26:26;;;;;;;2.05;1.27;;;15.50;99.90;;;;;;7390436;19;20167;-73
2023/03/21 09:28:53;;;;;;;2.33;1.52;;;15.80;99.90;;;;;;7390752;19;20145;-73
2023/03/21 09:31:22;;;;;;;2.58;1.98;;;15.90;99.90;;;;;;7392269;19;20153;-73
2023/03/21 09:33:49;;;;;;;1.48;1.00;;;16.10;99.90;;;;;;7391912;19;20142;-71
2023/03/21 09:36:17;;;;;;;2.47;0.90;;;16.10;99.90;;;;;;7387569;19;20146;-72
2023/03/21 09:38:45;;;;;;;5.72;3.20;;;16.10;99.90;;;;;;7390173;19;20210;-72
2023/03/21 09:41:29;;;;;;;1.92;1.00;;;16.10;99.90;;;;;;7392685;19;20131;-73
2023/03/21 09:44:21;;;;;;;2.35;1.02;;;16.20;99.90;;;;;;7392184;19;20139;-73
2023/03/21 09:47:05;;;;;;;1.08;0.73;;;16.20;99.90;;;;;;7390226;19;20146;-72
2023/03/21 09:49:37;;;;;;;2.88;1.00;;;16.40;99.90;;;;;;7393223;19;20146;-73
2023/03/21 09:52:12;;;;;;;3.55;2.38;;;16.50;99.90;;;;;;7389125;19;20154;-72
2023/03/21 09:54:44;;;;;;;3.10;1.60;;;16.60;99.90;;;;;;7389968;19;20146;-74
2023/03/21 09:57:31;;;;;;;2.30;1.40;;;16.70;99.90;;;;;;7389597;19;20611;-73
2023/03/21 10:00:06;;;;;;;33.60;5.93;;;16.80;99.90;;;;;;7390252;19;20138;-71
2023/03/21 10:02:48;;;;;;;4.00;2.63;;;16.80;99.90;;;;;;7390744;19;20133;-73
2023/03/21 10:05:29;;;;;;;2.00;1.27;;;16.90;99.90;;;;;;7386359;19;20139;-73
2023/03/21 10:08:06;;;;;;;3.20;1.83;;;16.90;99.90;;;;;;7390878;19;20205;-73
2023/03/21 10:10:51;;;;;;;4.10;2.25;;;17.00;99.90;;;;;;7396309;19;20214;-73
2023/03/21 10:13:31;;;;;;;2.70;1.10;;;16.90;99.90;;;;;;7389007;19;20139;-74
2023/03/21 10:16:08;;;;;;;4.65;2.70;;;17.00;99.90;;;;;;7389206;19;20126;-73
2023/03/21 10:18:36;;;;;;;1.92;1.50;;;17.00;99.90;;;;;;7387629;19;20247;-73
2023/03/21 10:21:04;;;;;;;2.03;1.65;;;16.90;99.90;;;;;;7391158;19;20505;-72
2023/03/21 10:23:30;;;;;;;1.10;0.85;;;16.90;99.90;;;;;;7392217;19;20619;-73
2023/03/21 10:25:59;;;;;;;1.63;1.40;;;17.00;99.90;;;;;;7390834;19;20834;-73
2023/03/21 10:28:34;;;;;;;1.27;1.02;;;17.10;99.90;;;;;;7387922;19;20138;-73
2023/03/21 10:31:03;;;;;;;2.22;1.75;;;17.40;99.90;;;;;;7390405;19;20614;-73
2023/03/21 10:33:34;;;;;;;2.03;1.20;;;17.60;99.90;;;;;;7389567;19;20131;-72
2023/03/21 10:36:19;;;;;;;1.77;1.13;;;17.90;99.60;;;;;;7389565;19;20139;-74
2023/03/21 10:39:03;;;;;;;2.95;2.00;;;17.80;99.90;;;;;;7390319;19;20220;-74
2023/03/21 10:41:29;;;;;;;3.03;1.50;;;17.70;99.90;;;;;;7391634;19;20255;-74
2023/03/21 10:44:07;;;;;;;1.15;0.95;;;17.70;99.90;;;;;;7388252;19;20224;-72
2023/03/21 10:46:34;;;;;;;1.95;1.50;;;17.40;99.90;;;;;;7386904;19;20488;-74
2023/03/21 10:49:00;;;;;;;1.80;0.90;;;17.40;99.90;;;;;;7385943;19;20127;-74
2023/03/21 10:51:38;;;;;;;2.75;2.00;;;17.30;99.90;;;;;;7388404;19;20131;-74
2023/03/21 10:54:13;;;;;;;3.25;2.40;;;17.30;99.90;;;;;;7392581;19;20214;-73
2023/03/21 10:56:47;;;;;;;1.05;0.90;;;17.30;99.90;;;;;;7390076;19;20157;-73
2023/03/21 10:59:20;;;;;;;1.25;1.00;;;17.30;99.90;;;;;;7388637;19;20237;-74
2023/03/21 11:01:50;;;;;;;1.90;1.25;;;17.50;99.90;;;;;;7389534;19;20142;-74
2023/03/21 11:04:28;;;;;;;1.10;1.00;;;17.50;99.90;;;;;;7388606;19;20143;-74
2023/03/21 11:07:02;;;;;;;3.75;1.42;;;17.40;99.90;;;;;;7389850;19;20131;-75
2023/03/21 11:09:56;;;;;;;1.60;0.88;;;17.30;99.90;;;;;;7389590;19;20138;-74
2023/03/21 11:12:37;;;;;;;1.50;1.17;;;17.40;99.90;;;;;;7391615;19;20594;-73
2023/03/21 11:15:32;;;;;;;2.97;1.13;;;17.50;99.90;;;;;;7387462;19;20644;-73
2023/03/21 11:18:02;;;;;;;2.10;0.90;;;17.40;99.90;;;;;;7391182;19;20149;-74
2023/03/21 11:20:32;;;;;;;1.30;0.90;;;17.40;99.90;;;;;;7391420;19;20147;-73
2023/03/21 11:23:01;;;;;;;1.30;0.95;;;17.50;99.90;;;;;;7385953;19;20147;-75
2023/03/21 11:25:40;;;;;;;1.48;1.00;;;17.60;99.90;;;;;;7389361;19;20630;-73
2023/03/21 11:28:21;;;;;;;2.15;1.27;;;17.60;99.40;;;;;;7387901;19;20142;-73
2023/03/21 11:30:58;;;;;;;1.17;0.98;;;17.50;99.90;;;;;;7389794;19;20200;-74
2023/03/21 11:33:32;;;;;;;1.70;1.20;;;17.50;99.90;;;;;;7387819;19;20137;-73
2023/03/21 11:36:00;;;;;;;2.28;1.48;;;17.30;99.90;;;;;;7387957;19;20605;-74
2023/03/21 11:38:31;;;;;;;2.15;1.35;;;17.40;99.90;;;;;;7387885;19;20150;-73
2023/03/21 11:41:00;;;;;;;1.02;0.93;;;17.60;99.90;;;;;;7394493;19;20131;-72
2023/03/21 11:43:31;;;;;;;2.38;1.30;;;17.70;99.90;;;;;;7390836;19;20138;-73
2023/03/21 11:46:08;;;;;;;11.63;3.65;;;17.70;99.90;;;;;;7385814;19;20157;-73
2023/03/21 11:48:47;;;;;;;6.53;2.00;;;17.90;99.90;;;;;;7387963;19;20142;-73
2023/03/21 11:51:47;;;;;;;2.85;1.13;;;17.80;99.70;;;;;;7388402;19;20142;-73
2023/03/21 11:54:39;;;;;;;1.25;0.70;;;17.60;99.10;;;;;;7386851;19;20190;-74
2023/03/21 11:57:21;;;;;;;1.58;1.20;;;17.60;98.90;;;;;;7385554;19;20134;-73
2023/03/21 12:00:13;;;;;;;2.03;1.30;;;17.60;98.70;;;;;;7388516;19;20139;-73
2023/03/21 12:02:46;;;;;;;1.92;1.30;;;17.50;99.30;;;;;;7385754;19;20158;-72
2023/03/21 12:05:27;;;;;;;2.38;1.38;;;17.60;99.90;;;;;;7385082;19;20181;-72
2023/03/21 12:08:17;;;;;;;2.63;1.88;;;17.50;99.90;;;;;;7387802;19;20176;-73
2023/03/21 12:10:51;;;;;;;3.90;1.80;;;17.40;99.90;;;;;;7387790;19;20667;-73
2023/03/21 12:13:29;;;;;;;1.85;1.40;;;17.30;99.90;;;;;;7384559;19;20177;-72
2023/03/21 12:16:21;;;;;;;2.83;1.90;;;17.20;99.90;;;;;;7386924;19;20906;-72
2023/03/21 12:19:11;;;;;;;3.85;1.65;;;17.20;99.90;;;;;;7385860;19;20135;-73
2023/03/21 12:21:45;;;;;;;2.60;1.75;;;17.20;99.90;;;;;;7386361;19;20142;-71
2023/03/21 12:24:23;;;;;;;6.75;2.13;;;17.20;99.90;;;;;;7388273;19;20162;-73
2023/03/21 12:27:16;;;;;;;2.25;2.00;;;17.20;99.90;;;;;;7388693;19;20166;-73
2023/03/21 12:29:51;;;;;;;3.58;1.85;;;17.10;99.90;;;;;;7387118;19;20134;-73
2023/03/21 12:32:37;;;;;;;2.22;1.50;;;17.00;99.90;;;;;;7385913;19;20218;-72
2023/03/21 12:35:14;;;;;;;3.22;1.55;;;17.00;99.90;;;;;;7384986;19;20154;-73
2023/03/21 12:37:51;;;;;;;3.35;1.55;;;16.90;99.90;;;;;;7384866;19;20148;-74
2023/03/21 12:40:42;;;;;;;1.70;1.38;;;17.00;99.90;;;;;;7385315;19;20138;-73
2023/03/21 12:43:32;;;;;;;2.97;1.85;;;17.00;99.90;;;;;;7386030;19;20154;-74
2023/03/21 12:46:02;;;;;;;5.82;2.95;;;17.10;99.90;;;;;;7385999;19;20151;-72
2023/03/21 12:48:55;;;;;;;3.15;2.28;;;17.10;99.90;;;;;;7384932;19;20154;-72
2023/03/21 12:51:32;;;;;;;3.05;1.75;;;17.10;99.90;;;;;;7385458;19;20548;-71
2023/03/21 12:54:28;;;;;;;3.47;2.60;;;17.10;99.90;;;;;;7383679;19;20470;-73
2023/03/21 12:57:11;;;;;;;2.28;1.40;;;17.20;99.90;;;;;;7385854;19;20158;-73
2023/03/21 12:59:59;;;;;;;3.63;1.90;;;17.20;99.90;;;;;;7391717;19;20146;-73
2023/03/21 13:02:40;;;;;;;1.98;1.63;;;17.10;99.90;;;;;;7391745;19;20151;-73
2023/03/21 13:05:31;;;;;;;5.18;2.33;;;17.10;99.90;;;;;;7390133;19;20150;-72
2023/03/21 13:08:06;;;;;;;2.45;1.88;;;17.20;99.90;;;;;;7392080;19;20130;-73
2023/03/21 13:10:33;;;;;;;4.80;2.45;;;17.30;99.90;;;;;;7389987;19;20142;-72